Station Historical Data
Daily Summary for November 24, 2017 Units:  Metric    English   Both
« Previous Day
Next Day »
Daily Weekly Monthly Yearly Custom
  High: Low: Average:
Temperature: 10.8 °C 1.2 °C 6.9 °C
Dew Point: 1.4 °C -3.3 °C -1.8 °C
Humidity: 74% 40% 55%
Wind Speed: 29km/h 0km/h 9.3km/h
Wind Gust: 37km/h - -
Wind- - SW
Pressure: 1015.1 hPa 1003.3 hPa -
Precipitation: 0 mm    
Historical Graphs
 
 
Tabular Data for November 24, 2017
Time Temperature Dew Point Pressure Wind Wind Speed Wind Gust Humidity Rainfall Rate (Hourly)
00:04 3.4 °C -2.3 °C 1015.1 hPa SW 6.4 km/h 17.7 km/h 66% 0 mm
00:09 3.4 °C -2.3 °C 1015.1 hPa SW 4.8 km/h 17.7 km/h 66% 0 mm
00:14 3.6 °C -1.7 °C 1015.1 hPa SW 4.8 km/h 12.9 km/h 68% 0 mm
00:24 4.2 °C -0.8 °C 1014.8 hPa West 3.2 km/h 9.7 km/h 70% 0 mm
00:34 4.3 °C -0.8 °C 1014.8 hPa WNW 8 km/h 14.5 km/h 69% 0 mm
00:39 4.3 °C -1.1 °C 1014.8 hPa West 8 km/h 19.3 km/h 68% 0 mm
00:44 4.3 °C -0.8 °C 1014.8 hPa West 4.8 km/h 14.5 km/h 69% 0 mm
00:49 4.3 °C -1.1 °C 1014.8 hPa WNW 4.8 km/h 11.3 km/h 68% 0 mm
00:54 4.2 °C -1.2 °C 1014.8 hPa West 6.4 km/h 16.1 km/h 68% 0 mm
00:59 4.2 °C -1.4 °C 1014.8 hPa West 6.4 km/h 16.1 km/h 67% 0 mm
01:04 4.2 °C -1.6 °C 1014.8 hPa West 6.4 km/h 12.9 km/h 66% 0 mm
01:09 4.1 °C -2.1 °C 1014.8 hPa West 6.4 km/h 16.1 km/h 64% 0 mm
01:14 4.1 °C -2.3 °C 1014.8 hPa West 6.4 km/h 16.1 km/h 63% 0 mm
01:19 4.1 °C -2.3 °C 1014.8 hPa WNW 4.8 km/h 12.9 km/h 63% 0 mm
01:24 4.1 °C -2.4 °C 1014.8 hPa WSW 4.8 km/h 12.9 km/h 63% 0 mm
01:29 4.1 °C -2.4 °C 1014.8 hPa WSW 6.4 km/h 11.3 km/h 63% 0 mm
01:34 4.1 °C -2.4 °C 1014.8 hPa SW 4.8 km/h 6.4 km/h 63% 0 mm
01:49 3.9 °C -2.5 °C 1014.8 hPa SW 8 km/h 8 km/h 63% 0 mm
01:59 3.9 °C -2.1 °C 1014.8 hPa SSW 4.8 km/h 11.3 km/h 65% 0 mm
02:04 3.8 °C -1.8 °C 1014.8 hPa SSW 1.6 km/h 6.4 km/h 67% 0 mm
02:09 3.7 °C -1.9 °C 1014.8 hPa SSW 3.2 km/h 6.4 km/h 67% 0 mm
02:14 3.7 °C -1.8 °C 1014.8 hPa WSW 3.2 km/h 8 km/h 67% 0 mm
02:19 3.8 °C -2 °C 1014.8 hPa WSW 3.2 km/h 6.4 km/h 66% 0 mm
02:29 3.8 °C -1.9 °C 1014.8 hPa SW 4.8 km/h 11.3 km/h 66% 0 mm
02:34 3.8 °C -2.2 °C 1014.8 hPa SW 4.8 km/h 11.3 km/h 65% 0 mm
02:39 3.9 °C -2.3 °C 1014.8 hPa SW 4.8 km/h 12.9 km/h 64% 0 mm
02:44 3.9 °C -2.3 °C 1014.8 hPa SW 8 km/h 12.9 km/h 64% 0 mm
02:49 3.9 °C -2.3 °C 1014.8 hPa WSW 3.2 km/h 11.3 km/h 64% 0 mm
02:54 3.9 °C -2.1 °C 1014.8 hPa SSW 3.2 km/h 8 km/h 65% 0 mm
03:09 3.7 °C -1.8 °C 1014.4 hPa Calm   6.4 km/h 67% 0 mm
03:19 3.7 °C -1.7 °C 1014.8 hPa SSW 1.6 km/h 4.8 km/h 68% 0 mm
03:24 3.6 °C -1.7 °C 1014.4 hPa Calm   4.8 km/h 68% 0 mm
03:34 3.5 °C -1.8 °C 1014.4 hPa SW 3.2 km/h 6.4 km/h 68% 0 mm
03:39 3.4 °C -1.9 °C 1014.4 hPa SW 3.2 km/h 6.4 km/h 68% 0 mm
03:44 3.4 °C -1.9 °C 1014.1 hPa SSW 4.8 km/h 6.4 km/h 68% 0 mm
03:59 3.4 °C -1.9 °C 1014.1 hPa SSW 3.2 km/h 8 km/h 68% 0 mm
04:09 3.4 °C -1.9 °C 1014.1 hPa SSW 3.2 km/h 9.7 km/h 68% 0 mm
04:14 3.4 °C -1.8 °C 1014.1 hPa SSW 3.2 km/h 6.4 km/h 69% 0 mm
04:19 3.4 °C -1.8 °C 1014.1 hPa WSW 6.4 km/h 8 km/h 69% 0 mm
04:24 3.4 °C -1.7 °C 1014.1 hPa South 3.2 km/h 12.9 km/h 69% 0 mm
04:29 3.5 °C -1.7 °C 1014.1 hPa SW 3.2 km/h 11.3 km/h 69% 0 mm
04:44 3.6 °C -1.6 °C 1014.1 hPa SSW 3.2 km/h 8 km/h 69% 0 mm
04:49 3.5 °C -1.7 °C 1014.1 hPa SSW 4.8 km/h 12.9 km/h 69% 0 mm
04:54 3.4 °C -1.7 °C 1014.1 hPa Calm   12.9 km/h 69% 0 mm
04:59 3.4 °C -1.8 °C 1014.1 hPa SW 4.8 km/h 11.3 km/h 69% 0 mm
05:04 3.3 °C -2 °C 1014.1 hPa SSW 4.8 km/h 11.3 km/h 68% 0 mm
05:09 3.2 °C -2.1 °C 1014.1 hPa SW 4.8 km/h 12.9 km/h 68% 0 mm
05:14 3.2 °C -2.2 °C 1014.1 hPa SSW 8 km/h 11.3 km/h 68% 0 mm
05:19 3.1 °C -2.2 °C 1014.1 hPa SSW 1.6 km/h 11.3 km/h 68% 0 mm
05:24 3.1 °C -2.2 °C 1014.1 hPa South 4.8 km/h 16.1 km/h 68% 0 mm
05:29 3.1 °C -2.2 °C 1014.1 hPa SSW 6.4 km/h 17.7 km/h 68% 0 mm
05:34 3.2 °C -2.2 °C 1013.8 hPa SSW 6.4 km/h 17.7 km/h 68% 0 mm
05:39 3.2 °C -2.2 °C 1013.8 hPa SW 6.4 km/h 14.5 km/h 68% 0 mm
05:44 3.1 °C -2.2 °C 1013.8 hPa SW 4.8 km/h 14.5 km/h 68% 0 mm
05:49 3.2 °C -2.2 °C 1013.8 hPa SW 6.4 km/h 12.9 km/h 68% 0 mm
05:54 3.1 °C -2.2 °C 1013.8 hPa SW 8 km/h 11.3 km/h 68% 0 mm
05:59 3.1 °C -2.2 °C 1013.8 hPa SW 3.2 km/h 14.5 km/h 68% 0 mm
06:04 3.1 °C -2.3 °C 1013.4 hPa SSW 6.4 km/h 14.5 km/h 68% 0 mm
06:09 3 °C -2.3 °C 1013.4 hPa SSW 6.4 km/h 14.5 km/h 68% 0 mm
06:14 2.9 °C -2.4 °C 1013.4 hPa SSW 4.8 km/h 14.5 km/h 68% 0 mm
06:19 2.7 °C -2.6 °C 1013.4 hPa SW 1.6 km/h 12.9 km/h 68% 0 mm
06:24 2.6 °C -2.6 °C 1013.4 hPa SW 4.8 km/h 9.7 km/h 69% 0 mm
06:29 2.3 °C -2.8 °C 1013.4 hPa South 3.2 km/h 9.7 km/h 69% 0 mm
06:34 2.1 °C -3.1 °C 1013.8 hPa SSW 4.8 km/h 9.7 km/h 69% 0 mm
06:39 1.9 °C -3 °C 1013.8 hPa SSW 4.8 km/h 8 km/h 70% 0 mm
06:44 1.7 °C -3.2 °C 1013.4 hPa SSW 3.2 km/h 8 km/h 70% 0 mm
06:49 1.6 °C -3.1 °C 1013.4 hPa SSW 3.2 km/h 9.7 km/h 71% 0 mm
06:54 1.4 °C -3.1 °C 1013.4 hPa SSW 4.8 km/h 11.3 km/h 72% 0 mm
06:59 1.4 °C -3.1 °C 1013.4 hPa SW 6.4 km/h 8 km/h 72% 0 mm
07:04 1.4 °C -3.1 °C 1013.4 hPa SSW 3.2 km/h 8 km/h 72% 0 mm
07:09 1.3 °C -3 °C 1013.4 hPa SSW 3.2 km/h 11.3 km/h 73% 0 mm
07:14 1.3 °C -3 °C 1013.4 hPa SSW 3.2 km/h 11.3 km/h 73% 0 mm
07:19 1.4 °C -2.9 °C 1013.4 hPa SW 6.4 km/h 11.3 km/h 73% 0 mm
07:24 1.3 °C -3 °C 1013.1 hPa SSW 8 km/h 9.7 km/h 73% 0 mm
07:29 1.3 °C -3 °C 1013.1 hPa SSW 4.8 km/h 11.3 km/h 73% 0 mm
07:34 1.3 °C -3 °C 1013.1 hPa SSW 4.8 km/h 11.3 km/h 73% 0 mm
07:39 1.3 °C -3.1 °C 1013.1 hPa South 3.2 km/h 9.7 km/h 73% 0 mm
07:44 1.2 °C -3.1 °C 1013.1 hPa South 3.2 km/h 8 km/h 73% 0 mm
07:49 1.3 °C -2.8 °C 1013.1 hPa South 4.8 km/h 11.3 km/h 74% 0 mm
07:54 1.3 °C -3 °C 1013.1 hPa South 4.8 km/h 11.3 km/h 73% 0 mm
07:59 1.4 °C -2.9 °C 1013.1 hPa SSW 4.8 km/h 11.3 km/h 73% 0 mm
08:04 1.6 °C -2.8 °C 1013.1 hPa South 4.8 km/h 12.9 km/h 73% 0 mm
08:09 1.7 °C -2.8 °C 1013.1 hPa South 8 km/h 12.9 km/h 72% 0 mm
08:14 1.8 °C -2.7 °C 1013.1 hPa SSW 9.7 km/h 9.7 km/h 72% 0 mm
08:19 1.9 °C -2.8 °C 1013.1 hPa South 12.9 km/h 16.1 km/h 71% 0 mm
08:24 2.1 °C -2.8 °C 1013.1 hPa South 4.8 km/h 16.1 km/h 70% 0 mm
08:29 2.3 °C -2.8 °C 1013.1 hPa SW 1.6 km/h 11.3 km/h 69% 0 mm
08:34 2.6 °C -2.8 °C 1013.1 hPa South 4.8 km/h 14.5 km/h 68% 0 mm
08:39 2.8 °C -2.6 °C 1012.8 hPa SSW 6.4 km/h 14.5 km/h 68% 0 mm
08:44 3 °C -2.6 °C 1012.8 hPa SSW 6.4 km/h 14.5 km/h 67% 0 mm
08:49 3.3 °C -2.2 °C 1012.8 hPa SSW 6.4 km/h 11.3 km/h 67% 0 mm
08:54 3.7 °C -2.1 °C 1012.8 hPa SSW 4.8 km/h 12.9 km/h 66% 0 mm
08:59 4.1 °C -2.2 °C 1012.8 hPa SSW 6.4 km/h 16.1 km/h 64% 0 mm
09:04 4.4 °C -2.1 °C 1012.8 hPa SSW 8 km/h 16.1 km/h 63% 0 mm
09:09 4.6 °C -2.3 °C 1012.4 hPa SSW 8 km/h 20.9 km/h 61% 0 mm
09:14 4.7 °C -2.6 °C 1012.4 hPa SSW 9.7 km/h 20.9 km/h 59% 0 mm
09:19 4.8 °C -2.8 °C 1012.4 hPa SW 20.9 km/h 27.4 km/h 58% 0 mm
09:24 4.9 °C -2.7 °C 1012.4 hPa SSW 6.4 km/h 22.5 km/h 58% 0 mm
09:29 5.2 °C -2.7 °C 1012.4 hPa SW 6.4 km/h 19.3 km/h 57% 0 mm
09:34 5.4 °C -2.7 °C 1012.4 hPa South 8 km/h 24.1 km/h 56% 0 mm
09:39 5.4 °C -2.9 °C 1012.4 hPa SSW 11.3 km/h 27.4 km/h 55% 0 mm
09:44 5.6 °C -3.1 °C 1012.4 hPa SW 12.9 km/h 27.4 km/h 54% 0 mm
09:49 5.7 °C -2.9 °C 1012.8 hPa SW 12.9 km/h 25.7 km/h 54% 0 mm
09:54 5.7 °C -2.9 °C 1012.8 hPa SW 12.9 km/h 25.7 km/h 54% 0 mm
09:59 6 °C -2.6 °C 1012.8 hPa SW 11.3 km/h 25.7 km/h 54% 0 mm
10:04 6.1 °C -3.1 °C 1012.8 hPa SW 12.9 km/h 25.7 km/h 52% 0 mm
10:09 6.3 °C -2.9 °C 1012.4 hPa SSW 6.4 km/h 22.5 km/h 52% 0 mm
10:14 6.5 °C -2.7 °C 1012.4 hPa SW 14.5 km/h 24.1 km/h 52% 0 mm
10:19 6.6 °C -2.8 °C 1012.1 hPa SW 12.9 km/h 24.1 km/h 51% 0 mm
10:24 6.5 °C -2.7 °C 1012.1 hPa SSW 6.4 km/h 20.9 km/h 52% 0 mm
10:29 6.5 °C -2.7 °C 1012.1 hPa WSW 11.3 km/h 27.4 km/h 52% 0 mm
10:34 6.7 °C -2.4 °C 1012.1 hPa SW 14.5 km/h 27.4 km/h 52% 0 mm
10:39 6.8 °C -2.3 °C 1011.7 hPa SW 12.9 km/h 24.1 km/h 52% 0 mm
10:44 7.1 °C -2.3 °C 1011.7 hPa SW 11.3 km/h 24.1 km/h 51% 0 mm
10:49 7.3 °C -2.2 °C 1011.7 hPa SW 11.3 km/h 24.1 km/h 51% 0 mm
10:54 7.3 °C -2.2 °C 1011.7 hPa West 9.7 km/h 30.6 km/h 51% 0 mm
10:59 7.4 °C -2.4 °C 1011.4 hPa SW 14.5 km/h 30.6 km/h 50% 0 mm
11:04 7.7 °C -1.8 °C 1011.4 hPa SW 14.5 km/h 32.2 km/h 51% 0 mm
11:09 7.9 °C -1.9 °C 1011.4 hPa SSW 9.7 km/h 27.4 km/h 50% 0 mm
11:14 8.1 °C -2.1 °C 1011.4 hPa WSW 12.9 km/h 33.8 km/h 49% 0 mm
11:19 8.2 °C -2.4 °C 1011.1 hPa SSW 11.3 km/h 29 km/h 47% 0 mm
11:24 8.3 °C -2.6 °C 1011.1 hPa West 29 km/h 37 km/h 46% 0 mm
11:29 8.4 °C -2.6 °C 1011.1 hPa SW 16.1 km/h 30.6 km/h 46% 0 mm
11:34 8.5 °C -2.2 °C 1011.1 hPa SW 17.7 km/h 30.6 km/h 47% 0 mm
11:39 8.6 °C -2.4 °C 1011.1 hPa WSW 17.7 km/h 32.2 km/h 46% 0 mm
11:44 8.6 °C -2.4 °C 1010.7 hPa WSW 19.3 km/h 32.2 km/h 46% 0 mm
11:49 8.7 °C -2.3 °C 1010.7 hPa SW 17.7 km/h 30.6 km/h 46% 0 mm
11:54 8.9 °C -1.8 °C 1010.7 hPa SW 16.1 km/h 29 km/h 47% 0 mm
11:59 9.1 °C -1.9 °C 1010.4 hPa SW 14.5 km/h 29 km/h 46% 0 mm
12:04 9.1 °C -2.3 °C 1010.4 hPa SW 24.1 km/h 33.8 km/h 45% 0 mm
12:09 9.2 °C -1.6 °C 1010.4 hPa SW 16.1 km/h 33.8 km/h 47% 0 mm
12:14 9.3 °C -1.8 °C 1010.4 hPa WSW 16.1 km/h 32.2 km/h 46% 0 mm
12:19 9.2 °C -2.1 °C 1010.4 hPa SW 16.1 km/h 32.2 km/h 45% 0 mm
12:24 9.2 °C -1.8 °C 1010 hPa SW 17.7 km/h 29 km/h 46% 0 mm
12:29 9.3 °C -1.8 °C 1010 hPa SW 22.5 km/h 32.2 km/h 46% 0 mm
12:34 9.3 °C -1.2 °C 1010 hPa SSW 17.7 km/h 32.2 km/h 48% 0 mm
12:39 9.4 °C -0.7 °C 1010 hPa SW 14.5 km/h 32.2 km/h 49% 0 mm
12:44 9.7 °C -0.3 °C 1010 hPa SW 12.9 km/h 25.7 km/h 50% 0 mm
12:49 9.6 °C -0.7 °C 1010 hPa WSW 22.5 km/h 30.6 km/h 49% 0 mm
12:54 9.7 °C -0.6 °C 1010 hPa WSW 14.5 km/h 22.5 km/h 49% 0 mm
12:59 9.8 °C -0.4 °C 1009.7 hPa SSW 12.9 km/h 24.1 km/h 49% 0 mm
13:04 9.9 °C 0.3 °C 1009.7 hPa WSW 11.3 km/h 24.1 km/h 51% 0 mm
13:09 10.1 °C 0.4 °C 1009.4 hPa SW 11.3 km/h 24.1 km/h 51% 0 mm
13:14 10.4 °C -0.2 °C 1009.4 hPa WSW 9.7 km/h 22.5 km/h 48% 0 mm
13:19 10 °C -0.2 °C 1009.4 hPa SW 12.9 km/h 30.6 km/h 49% 0 mm
13:24 9.9 °C 0 °C 1009 hPa WSW 6.4 km/h 30.6 km/h 50% 0 mm
13:29 9.9 °C -0.3 °C 1009 hPa SE 9.7 km/h 35.4 km/h 49% 0 mm
13:34 9.9 °C 0.3 °C 1009 hPa WSW 8 km/h 32.2 km/h 51% 0 mm
13:39 10 °C 0.6 °C 1008.7 hPa SW 16.1 km/h 32.2 km/h 52% 0 mm
13:44 10.1 °C 0.9 °C 1008.7 hPa WSW 16.1 km/h 30.6 km/h 53% 0 mm
13:49 10.2 °C 0.4 °C 1008.7 hPa WSW 14.5 km/h 27.4 km/h 51% 0 mm
13:54 10.2 °C 0.4 °C 1008.7 hPa SW 14.5 km/h 29 km/h 51% 0 mm
13:59 10.3 °C 0.6 °C 1008.4 hPa SW 14.5 km/h 29 km/h 51% 0 mm
14:04 10.3 °C 0.3 °C 1008.4 hPa SW 20.9 km/h 29 km/h 50% 0 mm
14:09 10.4 °C 0.7 °C 1008.4 hPa SW 14.5 km/h 24.1 km/h 51% 0 mm
14:14 10.4 °C 0.4 °C 1008.4 hPa WSW 12.9 km/h 25.7 km/h 50% 0 mm
14:19 10.6 °C 0.6 °C 1008.4 hPa West 12.9 km/h 19.3 km/h 50% 0 mm
14:24 10.6 °C 0.9 °C 1008 hPa WSW 4.8 km/h 19.3 km/h 51% 0 mm
14:29 10.3 °C 0.6 °C 1008 hPa WSW 11.3 km/h 27.4 km/h 51% 0 mm
14:34 10.2 °C 1.1 °C 1008 hPa SW 16.1 km/h 25.7 km/h 53% 0 mm
14:39 10.3 °C 1.1 °C 1008 hPa SW 9.7 km/h 25.7 km/h 53% 0 mm
14:44 10.2 °C 1.3 °C 1008 hPa SW 9.7 km/h 19.3 km/h 54% 0 mm
14:49 10.3 °C 1.4 °C 1008 hPa SW 9.7 km/h 19.3 km/h 54% 0 mm
14:54 10.4 °C 1.2 °C 1007.7 hPa SW 11.3 km/h 24.1 km/h 53% 0 mm
14:59 10.4 °C 1.3 °C 1007.7 hPa West 8 km/h 20.9 km/h 53% 0 mm
15:04 10.3 °C 0.8 °C 1007.7 hPa WSW 9.7 km/h 25.7 km/h 52% 0 mm
15:09 10.3 °C 1.1 °C 1007.3 hPa SW 11.3 km/h 22.5 km/h 53% 0 mm
15:14 10.4 °C 1 °C 1007.3 hPa SW 11.3 km/h 25.7 km/h 52% 0 mm
15:19 10.6 °C 0.8 °C 1007.3 hPa SSW 16.1 km/h 19.3 km/h 51% 0 mm
15:24 10.7 °C 0.7 °C 1007.3 hPa SW 11.3 km/h 24.1 km/h 50% 0 mm
15:29 10.8 °C 0.5 °C 1007.3 hPa SW 4.8 km/h 22.5 km/h 49% 0 mm
15:34 10.8 °C 0.5 °C 1007.3 hPa SW 16.1 km/h 25.7 km/h 49% 0 mm
15:39 10.7 °C 0.7 °C 1007.3 hPa SSW 9.7 km/h 19.3 km/h 50% 0 mm
15:44 10.6 °C 0.6 °C 1007.3 hPa SW 11.3 km/h 24.1 km/h 50% 0 mm
15:49 10.6 °C 0.9 °C 1007 hPa SW 9.7 km/h 24.1 km/h 51% 0 mm
15:54 10.5 °C 0.8 °C 1007 hPa SW 8 km/h 20.9 km/h 51% 0 mm
15:59 10.3 °C 0.8 °C 1007 hPa SW 9.7 km/h 20.9 km/h 52% 0 mm
16:04 10.1 °C 0.9 °C 1007 hPa SW 9.7 km/h 16.1 km/h 53% 0 mm
16:09 9.9 °C 0.8 °C 1007 hPa SSW 8 km/h 16.1 km/h 53% 0 mm
16:14 9.9 °C 0.8 °C 1007 hPa South 4.8 km/h 12.9 km/h 53% 0 mm
16:19 10.1 °C 0.4 °C 1006.7 hPa SW 8 km/h 16.1 km/h 51% 0 mm
16:24 10.2 °C 0.2 °C 1006.7 hPa South 6.4 km/h 14.5 km/h 50% 0 mm
16:29 10.2 °C -0.1 °C 1006.7 hPa SSW 3.2 km/h 9.7 km/h 49% 0 mm
16:34 10.2 °C -0.4 °C 1006.7 hPa SSW 3.2 km/h 12.9 km/h 48% 0 mm
16:39 9.9 °C -0.6 °C 1006.7 hPa South 6.4 km/h 8 km/h 48% 0 mm
16:44 9.8 °C -1 °C 1006.7 hPa SSW 11.3 km/h 12.9 km/h 47% 0 mm
16:49 9.8 °C -0.9 °C 1006.7 hPa SSW 8 km/h 16.1 km/h 47% 0 mm
16:54 9.8 °C -1 °C 1006.7 hPa SSW 8 km/h 17.7 km/h 47% 0 mm
16:59 9.7 °C -1.1 °C 1006.7 hPa SSW 8 km/h 17.7 km/h 47% 0 mm
17:04 9.5 °C -1.3 °C 1006.7 hPa SSW 8 km/h 16.1 km/h 47% 0 mm
17:09 9.5 °C -1.3 °C 1006.7 hPa SSW 8 km/h 19.3 km/h 47% 0 mm
17:14 9.4 °C -1.3 °C 1006.3 hPa SSW 9.7 km/h 19.3 km/h 47% 0 mm
17:19 9.4 °C -1.3 °C 1006.3 hPa SSW 9.7 km/h 19.3 km/h 47% 0 mm
17:24 9.4 °C -1.3 °C 1006.3 hPa SSW 9.7 km/h 24.1 km/h 47% 0 mm
17:29 9.4 °C -1.4 °C 1006.3 hPa South 14.5 km/h 25.7 km/h 47% 0 mm
17:34 9.4 °C -1.6 °C 1006.3 hPa SW 12.9 km/h 22.5 km/h 46% 0 mm
17:39 9.4 °C -1.4 °C 1006.3 hPa SSE 17.7 km/h 19.3 km/h 47% 0 mm
17:49 9.3 °C -1.7 °C 1006.3 hPa SW 8 km/h 20.9 km/h 46% 0 mm
17:54 9.2 °C -1.5 °C 1006 hPa SSW 9.7 km/h 20.9 km/h 47% 0 mm
17:59 9.2 °C -1.6 °C 1006 hPa SSW 9.7 km/h 19.3 km/h 47% 0 mm
18:04 9.1 °C -1.6 °C 1006 hPa SSW 9.7 km/h 24.1 km/h 47% 0 mm
18:09 9.1 °C -1.6 °C 1006 hPa SSW 9.7 km/h 24.1 km/h 47% 0 mm
18:14 9.1 °C -1.6 °C 1006 hPa SSW 11.3 km/h 24.1 km/h 47% 0 mm
18:19 9.1 °C -1.9 °C 1006.3 hPa SSW 11.3 km/h 20.9 km/h 46% 0 mm
18:24 9.1 °C -1.9 °C 1006.3 hPa SSW 9.7 km/h 22.5 km/h 46% 0 mm
18:29 9.1 °C -1.9 °C 1006.3 hPa SSW 12.9 km/h 20.9 km/h 46% 0 mm
18:34 9.1 °C -1.9 °C 1006 hPa SW 22.5 km/h 22.5 km/h 46% 0 mm
18:39 9 °C -2 °C 1006 hPa South 6.4 km/h 22.5 km/h 46% 0 mm
18:44 8.9 °C -1.8 °C 1006 hPa WSW 9.7 km/h 24.1 km/h 47% 0 mm
18:49 8.9 °C -1.8 °C 1006 hPa WSW 12.9 km/h 20.9 km/h 47% 0 mm
18:54 8.8 °C -1.9 °C 1005.6 hPa SSW 11.3 km/h 20.9 km/h 47% 0 mm
18:59 8.9 °C -2.1 °C 1006 hPa SSW 11.3 km/h 24.1 km/h 46% 0 mm
19:04 8.9 °C -2.1 °C 1006 hPa SSW 11.3 km/h 24.1 km/h 46% 0 mm
19:09 8.9 °C -2.1 °C 1006 hPa SSW 11.3 km/h 24.1 km/h 46% 0 mm
19:14 8.8 °C -2.2 °C 1006 hPa SSW 9.7 km/h 24.1 km/h 46% 0 mm
19:19 8.8 °C -2.2 °C 1006 hPa SW 9.7 km/h 22.5 km/h 46% 0 mm
19:24 8.8 °C -2.2 °C 1006 hPa SSW 9.7 km/h 22.5 km/h 46% 0 mm
19:29 8.8 °C -1.9 °C 1006 hPa SSW 9.7 km/h 27.4 km/h 47% 0 mm
19:34 8.8 °C -2.2 °C 1005.6 hPa SSW 11.3 km/h 25.7 km/h 46% 0 mm
19:39 8.8 °C -2.2 °C 1005.6 hPa South 11.3 km/h 24.1 km/h 46% 0 mm
19:44 8.8 °C -2.2 °C 1005.6 hPa WSW 16.1 km/h 27.4 km/h 46% 0 mm
19:49 8.8 °C -2.2 °C 1005.6 hPa SW 9.7 km/h 24.1 km/h 46% 0 mm
19:54 8.8 °C -2.2 °C 1005.6 hPa SSW 11.3 km/h 24.1 km/h 46% 0 mm
19:59 8.7 °C -2.3 °C 1005.6 hPa SSW 11.3 km/h 25.7 km/h 46% 0 mm
20:04 8.7 °C -2.3 °C 1005.6 hPa SSW 11.3 km/h 27.4 km/h 46% 0 mm
20:09 8.8 °C -2.5 °C 1005.6 hPa SSW 8 km/h 24.1 km/h 45% 0 mm
20:14 8.8 °C -2.5 °C 1005.6 hPa SW 4.8 km/h 27.4 km/h 45% 0 mm
20:19 8.8 °C -2.5 °C 1005.6 hPa SW 19.3 km/h 22.5 km/h 45% 0 mm
20:24 8.8 °C -2.4 °C 1005.6 hPa SSW 11.3 km/h 25.7 km/h 45% 0 mm
20:29 8.8 °C -2.4 °C 1005.6 hPa SSW 11.3 km/h 25.7 km/h 45% 0 mm
20:34 8.8 °C -2.5 °C 1005.6 hPa SSW 11.3 km/h 24.1 km/h 45% 0 mm
20:39 8.8 °C -2.5 °C 1005.3 hPa SSW 9.7 km/h 24.1 km/h 45% 0 mm
20:44 8.8 °C -2.5 °C 1005.3 hPa SSW 9.7 km/h 29 km/h 45% 0 mm
20:49 8.8 °C -2.8 °C 1005.3 hPa SSW 4.8 km/h 22.5 km/h 44% 0 mm
20:54 8.9 °C -2.7 °C 1005.3 hPa SSW 11.3 km/h 29 km/h 44% 0 mm
20:59 8.9 °C -2.7 °C 1005 hPa SSW 17.7 km/h 27.4 km/h 44% 0 mm
21:04 8.9 °C -2.7 °C 1005 hPa SSW 11.3 km/h 17.7 km/h 44% 0 mm
21:09 8.9 °C -2.7 °C 1005 hPa SW 6.4 km/h 25.7 km/h 44% 0 mm
21:14 9 °C -2.6 °C 1005 hPa SW 9.7 km/h 19.3 km/h 44% 0 mm
21:19 9 °C -2.6 °C 1005 hPa SSW 14.5 km/h 20.9 km/h 44% 0 mm
21:24 8.9 °C -3 °C 1005 hPa SSW 11.3 km/h 24.1 km/h 43% 0 mm
21:29 9.1 °C -2.9 °C 1005 hPa SSW 11.3 km/h 24.1 km/h 43% 0 mm
21:34 9.1 °C -2.9 °C 1004.6 hPa SSW 11.3 km/h 20.9 km/h 43% 0 mm
21:39 8.9 °C -3 °C 1004.6 hPa SSW 11.3 km/h 20.9 km/h 43% 0 mm
21:44 8.9 °C -3.1 °C 1004.6 hPa SSW 9.7 km/h 19.3 km/h 43% 0 mm
21:49 8.9 °C -3.1 °C 1004.6 hPa SSW 6.4 km/h 25.7 km/h 43% 0 mm
21:54 8.9 °C -3 °C 1004.3 hPa South 9.7 km/h 20.9 km/h 43% 0 mm
21:59 9 °C -2.9 °C 1004.3 hPa South 9.7 km/h 30.6 km/h 43% 0 mm
22:04 9.1 °C -3.2 °C 1004.3 hPa South 8 km/h 24.1 km/h 42% 0 mm
22:09 9.2 °C -3.1 °C 1004.3 hPa South 20.9 km/h 24.1 km/h 42% 0 mm
22:19 9.2 °C -3.1 °C 1003.9 hPa SSW 9.7 km/h 24.1 km/h 42% 0 mm
22:24 9.2 °C -3.1 °C 1003.9 hPa SSW 9.7 km/h 25.7 km/h 42% 0 mm
22:29 9.2 °C -3.1 °C 1003.9 hPa SSW 9.7 km/h 25.7 km/h 42% 0 mm
22:34 9.3 °C -3.3 °C 1003.9 hPa SSW 11.3 km/h 27.4 km/h 41% 0 mm
22:39 9.4 °C -3.2 °C 1003.6 hPa South 11.3 km/h 22.5 km/h 41% 0 mm
22:44 9.4 °C -3.2 °C 1003.6 hPa SSW 11.3 km/h 22.5 km/h 41% 0 mm
22:49 9.4 °C -3.2 °C 1003.6 hPa South 20.9 km/h 22.5 km/h 41% 0 mm
22:54 9.6 °C -3.3 °C 1003.6 hPa SSW 12.9 km/h 22.5 km/h 40% 0 mm
22:59 9.6 °C -3.3 °C 1003.6 hPa SSW 12.9 km/h 22.5 km/h 40% 0 mm
23:04 9.7 °C -3.3 °C 1003.3 hPa SSW 12.9 km/h 32.2 km/h 40% 0 mm
23:09 9.7 °C -3.3 °C 1003.3 hPa South 9.7 km/h 22.5 km/h 40% 0 mm
23:14 9.6 °C -3.3 °C 1003.3 hPa SSW 12.9 km/h 27.4 km/h 40% 0 mm
23:19 9.6 °C -3.3 °C 1003.3 hPa SSW 6.4 km/h 24.1 km/h 40% 0 mm
23:24 9.6 °C -3.1 °C 1003.3 hPa SSW 9.7 km/h 24.1 km/h 41% 0 mm
23:29 9.6 °C -3 °C 1003.3 hPa SSW 9.7 km/h 24.1 km/h 41% 0 mm
23:34 9.7 °C -3.3 °C 1003.3 hPa SSW 11.3 km/h 24.1 km/h 40% 0 mm
23:39 9.7 °C -2.9 °C 1003.3 hPa SSW 9.7 km/h 20.9 km/h 41% 0 mm
23:44 9.7 °C -3.3 °C 1003.3 hPa SSW 9.7 km/h 20.9 km/h 40% 0 mm
23:49 9.7 °C -2.9 °C 1003.3 hPa SSW 3.2 km/h 20.9 km/h 41% 0 mm
23:54 9.7 °C -2.9 °C 1003.3 hPa SSE 6.4 km/h 16.1 km/h 41% 0 mm
23:59 9.7 °C -2.9 °C 1003.3 hPa SSW 9.7 km/h 17.7 km/h 41% 0 mm
Buffalo, New York, USA
Compliments of Weather Underground - 2.25 mb